Conover, Iowa
Current Conditions -  °F | °C
As of 11:35 PM on Wednesday 26 Nov 2014 (Local Time) from KDEH Reporting Station
Overcast Overcast  
Wind Chill: 11°   Ceiling: 2000
Heat Index: 23°   Visibility: 10mi
Dew Point: 18°   Wind: 14mph
Humidity: 80%   Direction: 340°NNW
Pressure: 30.27"   Gusts: NA
Location:  43.2097°N, 91.9613°W
Report Text: KDEH 270535Z AUTO 34012KT 10SM OVC020 M05/M08 A3027 RMK AO2
Loading
Personal Weather Stations






























Interactive Weather Map New forecast layout! Learn more

10-Day Weather Forecast

Advertisements
Track Severe Weather on mobile